Time;durP1;ratioP1;P1;durP2;ratioP2;P2;SDS_P1;SDS_P2;PMS_P1;PMS_P2;Temp;Humidity;BMP_temperature;BMP_pressure;BME280_temperature;BME280_humidity;BME280_pressure;Samples;Min_cycle;Max_cycle;Signal;HPM_P1;HPM_P2
2022/04/17 00:02:32;;;;;;;6.63;3.23;;;;;;;;;;5000420;28;20436;-71
2022/04/17 00:04:59;;;;;;;3.17;2.87;;;;;;;;;;4995475;28;20925;-71
2022/04/17 00:07:25;;;;;;;3.50;2.97;;;;;;;;;;5006675;28;20448;-71
2022/04/17 00:09:51;;;;;;;4.57;3.20;;;;;;;;;;4992259;28;20440;-71
2022/04/17 00:12:18;;;;;;;2.93;2.60;;;;;;;;;;5004075;28;20452;-71
2022/04/17 00:14:45;;;;;;;2.97;2.47;;;;;;;;;;4999838;28;20485;-71
2022/04/17 00:17:12;;;;;;;5.60;2.90;;;;;;;;;;4997820;28;20507;-71
2022/04/17 00:19:38;;;;;;;5.20;2.63;;;;;;;;;;4992692;28;20452;-71
2022/04/17 00:22:04;;;;;;;4.80;2.73;;;;;;;;;;4996860;28;21000;-71
2022/04/17 00:24:30;;;;;;;3.30;2.37;;;;;;;;;;4985706;28;20978;-71
2022/04/17 00:26:59;;;;;;;5.70;3.40;;;;;;;;;;5010083;28;20440;-71
2022/04/17 00:29:26;;;;;;;3.27;2.57;;;;;;;;;;4978733;28;20665;-71
2022/04/17 00:31:52;;;;;;;2.70;2.30;;;;;;;;;;4997707;28;20540;-72
2022/04/17 00:34:45;;;;;;;3.67;2.90;;;;;;;;;;5006531;28;20468;-70
2022/04/17 00:37:30;;;;;;;3.03;2.57;;;;;;;;;;4978729;28;20441;-71
2022/04/17 00:39:59;;;;;;;4.73;2.40;;;;;;;;;;4986998;28;20449;-71
2022/04/17 00:42:25;;;;;;;3.27;2.23;;;;;;;;;;5005657;28;20448;-71
2022/04/17 00:44:51;;;;;;;3.67;3.10;;;;;;;;;;5006219;28;20440;-72
2022/04/17 00:47:17;;;;;;;4.50;3.13;;;;;;;;;;4992524;28;20433;-71
2022/04/17 00:49:43;;;;;;;3.67;2.43;;;;;;;;;;4998707;28;20463;-71
2022/04/17 00:52:10;;;;;;;3.17;2.80;;;;;;;;;;5001903;28;20472;-71
2022/04/17 00:54:38;;;;;;;2.60;2.20;;;;;;;;;;4975418;28;20567;-72
2022/04/17 00:57:04;;;;;;;3.43;2.53;;;;;;;;;;5004090;28;20927;-71
2022/04/17 00:59:30;;;;;;;2.90;2.50;;;;;;;;;;4976757;28;20452;-71
2022/04/17 01:01:56;;;;;;;4.63;2.50;;;;;;;;;;4999109;28;20448;-71
2022/04/17 01:04:22;;;;;;;5.90;2.67;;;;;;;;;;4976978;28;20923;-71
2022/04/17 01:06:48;;;;;;;3.30;2.73;;;;;;;;;;5001334;28;20433;-71
2022/04/17 01:09:14;;;;;;;3.60;3.30;;;;;;;;;;4988761;28;20495;-71
2022/04/17 01:11:40;;;;;;;4.67;2.83;;;;;;;;;;4999316;28;22293;-71
2022/04/17 01:14:08;;;;;;;3.50;2.50;;;;;;;;;;4985104;28;20565;-72
2022/04/17 01:16:34;;;;;;;2.47;2.27;;;;;;;;;;4998791;28;20500;-71
2022/04/17 01:19:03;;;;;;;3.17;2.60;;;;;;;;;;4999829;28;20748;-71
2022/04/17 01:21:30;;;;;;;3.13;2.10;;;;;;;;;;5005088;28;20429;-71
2022/04/17 01:26:56;;;;;;;4.10;2.30;;;;;;;;;;5004449;28;20502;-71
2022/04/17 01:29:42;;;;;;;5.47;2.27;;;;;;;;;;4965346;28;20892;-71
2022/04/17 01:32:09;;;;;;;6.03;2.60;;;;;;;;;;5002739;28;20444;-70
2022/04/17 01:35:13;;;;;;;5.13;2.63;;;;;;;;;;4978568;28;20956;-71
2022/04/17 01:37:49;;;;;;;2.70;2.27;;;;;;;;;;4998204;28;23752;-71
2022/04/17 01:40:27;;;;;;;2.70;2.50;;;;;;;;;;5005709;28;20468;-71
2022/04/17 01:42:59;;;;;;;3.20;2.70;;;;;;;;;;5005234;28;20433;-71
2022/04/17 01:45:38;;;;;;;3.97;2.60;;;;;;;;;;4995437;28;20742;-73
2022/04/17 01:48:07;;;;;;;3.50;2.80;;;;;;;;;;5030563;28;20417;-72
2022/04/17 01:50:33;;;;;;;3.00;2.63;;;;;;;;;;5006883;28;20629;-72
2022/04/17 01:53:00;;;;;;;2.83;2.63;;;;;;;;;;5017735;28;20421;-72
2022/04/17 01:55:32;;;;;;;5.30;3.10;;;;;;;;;;4985142;28;20507;-71
2022/04/17 01:57:58;;;;;;;4.23;2.40;;;;;;;;;;4995011;28;20770;-71
2022/04/17 02:00:25;;;;;;;2.93;2.57;;;;;;;;;;4974008;28;20457;-71
2022/04/17 02:02:51;;;;;;;3.00;2.70;;;;;;;;;;4996728;28;20437;-71
2022/04/17 02:05:43;;;;;;;4.10;2.90;;;;;;;;;;4986524;28;20436;-72
2022/04/17 02:08:11;;;;;;;3.43;2.30;;;;;;;;;;5003239;28;20452;-71
2022/04/17 02:10:37;;;;;;;3.20;2.37;;;;;;;;;;4990364;28;21209;-71
2022/04/17 02:13:03;;;;;;;3.10;2.57;;;;;;;;;;4996047;28;20476;-72
2022/04/17 02:15:29;;;;;;;3.23;2.47;;;;;;;;;;4982158;28;20457;-71
2022/04/17 02:17:55;;;;;;;7.43;3.03;;;;;;;;;;5007512;28;20442;-71
2022/04/17 02:20:29;;;;;;;4.07;2.80;;;;;;;;;;4986068;28;21377;-72
2022/04/17 02:22:55;;;;;;;3.37;2.77;;;;;;;;;;5010576;28;20672;-70
2022/04/17 02:25:56;;;;;;;2.70;2.47;;;;;;;;;;4995935;28;20788;-71
2022/04/17 02:28:22;;;;;;;3.57;2.97;;;;;;;;;;5002361;28;20786;-71
2022/04/17 02:30:49;;;;;;;3.07;2.77;;;;;;;;;;4987195;28;20508;-73
2022/04/17 02:33:15;;;;;;;3.97;3.50;;;;;;;;;;4995987;28;20457;-70
2022/04/17 02:35:45;;;;;;;3.60;2.80;;;;;;;;;;5005192;28;20458;-70
2022/04/17 02:38:14;;;;;;;5.03;3.70;;;;;;;;;;5003885;28;20443;-70
2022/04/17 02:40:40;;;;;;;3.10;2.67;;;;;;;;;;4978825;28;20753;-71
2022/04/17 02:43:06;;;;;;;3.97;2.73;;;;;;;;;;5003830;28;20552;-71
2022/04/17 02:45:32;;;;;;;3.40;3.10;;;;;;;;;;5010465;28;20476;-71
2022/04/17 02:47:58;;;;;;;3.10;2.80;;;;;;;;;;5003348;28;20468;-71
2022/04/17 02:50:28;;;;;;;2.87;2.57;;;;;;;;;;4982713;28;20523;-71
2022/04/17 02:52:57;;;;;;;3.40;2.70;;;;;;;;;;5006626;28;20464;-71
2022/04/17 02:55:24;;;;;;;3.83;3.13;;;;;;;;;;5002121;28;20700;-71
2022/04/17 02:57:50;;;;;;;4.50;2.93;;;;;;;;;;5005143;28;20504;-71
2022/04/17 03:06:11;;;;;;;4.57;3.37;;;;;;;;;;5002115;28;20486;-71
2022/04/17 03:08:41;;;;;;;4.80;3.20;;;;;;;;;;5011210;28;20447;-71
2022/04/17 03:11:11;;;;;;;2.50;2.30;;;;;;;;;;5020766;28;20544;-71
2022/04/17 03:13:40;;;;;;;3.20;2.23;;;;;;;;;;5022016;28;20550;-71
2022/04/17 03:16:08;;;;;;;3.27;2.93;;;;;;;;;;4983733;28;22368;-70
2022/04/17 03:18:34;;;;;;;2.63;2.43;;;;;;;;;;5016203;28;20847;-70
2022/04/17 03:21:01;;;;;;;5.80;3.30;;;;;;;;;;4986139;28;20440;-71
2022/04/17 03:23:27;;;;;;;9.87;3.10;;;;;;;;;;4996652;28;20440;-71
2022/04/17 03:25:53;;;;;;;3.90;3.23;;;;;;;;;;5005239;28;20480;-71
2022/04/17 03:28:19;;;;;;;3.63;2.40;;;;;;;;;;5026391;28;20440;-70
2022/04/17 03:30:48;;;;;;;4.10;3.30;;;;;;;;;;4977911;28;20471;-71
2022/04/17 03:33:15;;;;;;;2.80;2.60;;;;;;;;;;5007144;28;20539;-71
2022/04/17 03:35:51;;;;;;;7.90;3.10;;;;;;;;;;4994320;28;20459;-71
2022/04/17 03:38:20;;;;;;;3.43;2.93;;;;;;;;;;5007582;28;20495;-71
2022/04/17 03:40:46;;;;;;;7.83;3.60;;;;;;;;;;4986293;28;20897;-71
2022/04/17 03:43:23;;;;;;;4.30;3.40;;;;;;;;;;5000803;28;20443;-70
2022/04/17 03:48:55;;;;;;;4.83;3.20;;;;;;;;;;4995542;28;20884;-71
2022/04/17 03:51:24;;;;;;;5.63;2.33;;;;;;;;;;4984977;28;20551;-73
2022/04/17 03:53:50;;;;;;;4.70;2.90;;;;;;;;;;5000609;28;20480;-70
2022/04/17 03:56:29;;;;;;;5.73;3.50;;;;;;;;;;4982988;28;20802;-71
2022/04/17 03:58:55;;;;;;;4.00;3.20;;;;;;;;;;4997420;28;20460;-70
2022/04/17 04:01:29;;;;;;;2.90;2.70;;;;;;;;;;4994901;28;20437;-71
2022/04/17 04:03:55;;;;;;;6.00;3.40;;;;;;;;;;5002429;28;21734;-71
2022/04/17 04:06:47;;;;;;;4.90;3.50;;;;;;;;;;4994634;28;20441;-71
2022/04/17 04:09:16;;;;;;;4.17;3.50;;;;;;;;;;5017669;28;20448;-71
2022/04/17 04:11:43;;;;;;;6.37;3.37;;;;;;;;;;4987592;28;20436;-71
2022/04/17 04:14:10;;;;;;;6.30;3.40;;;;;;;;;;4995599;28;20473;-71
2022/04/17 04:16:36;;;;;;;5.93;4.00;;;;;;;;;;4984075;28;20500;-71
2022/04/17 04:19:05;;;;;;;4.53;3.20;;;;;;;;;;5002626;28;20991;-72
2022/04/17 04:21:49;;;;;;;3.67;3.33;;;;;;;;;;4979788;28;20526;-72
2022/04/17 04:24:16;;;;;;;6.23;3.70;;;;;;;;;;4994875;28;20428;-71
2022/04/17 04:29:32;;;;;;;4.43;3.33;;;;;;;;;;5006778;28;20975;-71
2022/04/17 04:32:02;;;;;;;3.67;3.37;;;;;;;;;;4996507;28;20480;-72
2022/04/17 04:34:28;;;;;;;4.30;3.10;;;;;;;;;;4989523;28;20990;-71
2022/04/17 04:37:24;;;;;;;4.27;3.23;;;;;;;;;;4989907;28;20438;-72
2022/04/17 04:39:51;;;;;;;6.30;3.40;;;;;;;;;;5025387;28;20475;-71
2022/04/17 04:42:21;;;;;;;4.83;3.10;;;;;;;;;;5019906;28;20754;-72
2022/04/17 04:47:47;;;;;;;5.17;2.90;;;;;;;;;;4997146;28;20461;-71
2022/04/17 04:50:26;;;;;;;5.63;3.17;;;;;;;;;;5001885;28;20436;-72
2022/04/17 04:53:26;;;;;;;4.53;3.40;;;;;;;;;;5002057;28;20487;-72
2022/04/17 04:55:54;;;;;;;4.33;3.60;;;;;;;;;;5005468;28;20444;-72
2022/04/17 04:58:40;;;;;;;5.83;3.10;;;;;;;;;;5000532;28;21065;-72
2022/04/17 05:01:08;;;;;;;4.27;3.30;;;;;;;;;;4975623;28;20456;-71
2022/04/17 05:04:08;;;;;;;5.10;3.23;;;;;;;;;;5004849;28;20907;-71
2022/04/17 05:06:34;;;;;;;4.40;3.80;;;;;;;;;;5000649;28;20537;-71
2022/04/17 05:09:00;;;;;;;4.80;3.97;;;;;;;;;;5008056;28;20433;-71
2022/04/17 05:11:26;;;;;;;4.43;3.67;;;;;;;;;;4985810;28;20444;-72
2022/04/17 05:13:55;;;;;;;3.80;3.37;;;;;;;;;;5002516;28;20486;-72
2022/04/17 05:16:21;;;;;;;4.60;3.63;;;;;;;;;;4989507;28;20939;-72
2022/04/17 05:18:52;;;;;;;4.87;3.17;;;;;;;;;;5005031;28;20448;-71
2022/04/17 05:21:22;;;;;;;3.43;3.13;;;;;;;;;;5006697;28;20425;-71
2022/04/17 05:23:48;;;;;;;4.00;3.60;;;;;;;;;;5005142;28;20523;-71
2022/04/17 05:26:14;;;;;;;4.43;2.87;;;;;;;;;;5000288;28;20547;-72
2022/04/17 05:28:40;;;;;;;3.27;2.97;;;;;;;;;;5001700;28;20790;-71
2022/04/17 05:31:13;;;;;;;6.40;4.00;;;;;;;;;;4989667;28;20914;-71
2022/04/17 05:33:48;;;;;;;5.67;4.00;;;;;;;;;;5018738;28;20476;-71
2022/04/17 05:36:15;;;;;;;5.10;3.63;;;;;;;;;;5003344;28;20437;-71
2022/04/17 05:38:41;;;;;;;5.60;3.83;;;;;;;;;;5035724;28;20864;-71
2022/04/17 05:41:27;;;;;;;;;;;;;;;;;;;;;
2022/04/17 05:47:01;;;;;;;5.70;3.93;;;;;;;;;;4986853;28;20525;-72
2022/04/17 05:52:31;;;;;;;3.93;3.53;;;;;;;;;;4992842;28;20442;-72
2022/04/17 05:54:57;;;;;;;4.83;4.27;;;;;;;;;;4989172;28;20480;-72
2022/04/17 05:57:27;;;;;;;5.43;3.70;;;;;;;;;;5020577;28;20863;-74
2022/04/17 06:00:45;;;;;;;3.73;3.07;;;;;;;;;;5016770;28;20542;-72
2022/04/17 06:03:15;;;;;;;4.40;3.40;;;;;;;;;;4975532;28;20453;-72
2022/04/17 06:05:53;;;;;;;3.73;3.10;;;;;;;;;;4998594;28;20455;-72
2022/04/17 06:08:19;;;;;;;3.30;2.90;;;;;;;;;;5002273;28;20465;-72
2022/04/17 06:11:18;;;;;;;6.67;3.57;;;;;;;;;;4984335;28;22471;-72
2022/04/17 06:13:58;;;;;;;4.93;4.20;;;;;;;;;;4980418;28;20477;-72
2022/04/17 06:16:40;;;;;;;3.93;2.87;;;;;;;;;;4958883;28;20549;-72
2022/04/17 06:19:09;;;;;;;5.00;3.67;;;;;;;;;;4995693;28;21012;-73
2022/04/17 06:21:35;;;;;;;5.73;3.50;;;;;;;;;;4975815;28;20451;-72
2022/04/17 06:24:10;;;;;;;3.03;2.73;;;;;;;;;;4997694;28;20437;-72
2022/04/17 06:26:36;;;;;;;3.00;2.70;;;;;;;;;;5008879;28;20433;-72
2022/04/17 06:29:08;;;;;;;3.37;3.07;;;;;;;;;;5011435;28;20822;-73
2022/04/17 06:31:45;;;;;;;3.63;2.57;;;;;;;;;;5005035;28;20832;-73
2022/04/17 06:34:15;;;;;;;3.87;2.70;;;;;;;;;;5021014;28;20496;-72
2022/04/17 06:36:42;;;;;;;3.60;2.90;;;;;;;;;;4981790;28;20444;-72
2022/04/17 06:39:08;;;;;;;3.00;2.70;;;;;;;;;;4999667;28;20437;-71
2022/04/17 06:41:34;;;;;;;3.70;2.77;;;;;;;;;;4977409;28;20486;-70
2022/04/17 06:44:00;;;;;;;3.87;2.90;;;;;;;;;;4982960;28;20460;-74
2022/04/17 06:46:51;;;;;;;3.60;2.60;;;;;;;;;;4995606;28;20440;-72
2022/04/17 06:49:17;;;;;;;4.63;3.30;;;;;;;;;;4989671;28;20439;-72
2022/04/17 06:51:50;;;;;;;3.50;2.33;;;;;;;;;;4988014;28;20436;-72
2022/04/17 06:54:16;;;;;;;3.17;2.80;;;;;;;;;;4987418;28;20480;-73
2022/04/17 06:56:42;;;;;;;2.50;2.20;;;;;;;;;;4995935;28;20439;-73
2022/04/17 06:59:14;;;;;;;3.10;2.73;;;;;;;;;;5003669;28;20428;-73
2022/04/17 07:01:48;;;;;;;4.30;3.57;;;;;;;;;;4963492;28;20519;-72
2022/04/17 07:07:29;;;;;;;3.37;2.70;;;;;;;;;;4981471;28;21012;-74
2022/04/17 07:10:24;;;;;;;3.43;1.97;;;;;;;;;;4983924;28;20567;-74
2022/04/17 07:12:51;;;;;;;2.80;2.50;;;;;;;;;;4990515;28;20483;-72
2022/04/17 07:15:40;;;;;;;7.13;3.10;;;;;;;;;;5000775;28;21181;-73
2022/04/17 07:18:06;;;;;;;3.33;1.93;;;;;;;;;;4991441;28;20440;-72
2022/04/17 07:20:34;;;;;;;2.93;2.60;;;;;;;;;;4980685;28;20953;-72
2022/04/17 07:23:00;;;;;;;2.10;1.90;;;;;;;;;;5002688;28;20456;-72
2022/04/17 07:25:26;;;;;;;3.20;2.43;;;;;;;;;;4979050;28;20553;-72
2022/04/17 07:27:54;;;;;;;3.23;2.30;;;;;;;;;;4998273;28;20533;-71
2022/04/17 07:30:30;;;;;;;2.70;2.27;;;;;;;;;;4984334;28;22519;-71
2022/04/17 07:32:57;;;;;;;2.67;2.27;;;;;;;;;;4993658;28;21056;-72
2022/04/17 07:35:45;;;;;;;5.03;2.77;;;;;;;;;;4999539;28;20567;-71
2022/04/17 07:38:12;;;;;;;4.10;2.20;;;;;;;;;;4978375;28;20881;-72
2022/04/17 07:40:39;;;;;;;2.90;2.60;;;;;;;;;;4997401;28;20453;-72
2022/04/17 07:43:05;;;;;;;3.10;2.30;;;;;;;;;;4970847;28;20563;-73
2022/04/17 07:45:34;;;;;;;2.57;2.17;;;;;;;;;;5004089;28;20453;-72
2022/04/17 07:48:00;;;;;;;3.30;2.50;;;;;;;;;;4971407;28;20448;-72
2022/04/17 07:50:27;;;;;;;2.47;2.13;;;;;;;;;;4991250;28;20445;-72
2022/04/17 07:52:54;;;;;;;2.60;2.40;;;;;;;;;;4990288;28;20181;-71
2022/04/17 07:55:20;;;;;;;6.00;2.13;;;;;;;;;;4990380;28;20516;-71
2022/04/17 08:00:44;;;;;;;2.97;2.23;;;;;;;;;;5003174;28;20518;-72
2022/04/17 08:05:55;;;;;;;2.30;1.93;;;;;;;;;;5006925;28;20450;-72
2022/04/17 08:08:21;;;;;;;2.90;2.60;;;;;;;;;;4984749;28;20445;-71
2022/04/17 08:10:51;;;;;;;3.77;1.97;;;;;;;;;;5021656;28;20524;-72
2022/04/17 08:13:17;;;;;;;2.10;1.83;;;;;;;;;;4987329;28;20452;-71
2022/04/17 08:15:55;;;;;;;3.63;2.20;;;;;;;;;;5010678;28;20487;-72
2022/04/17 08:18:21;;;;;;;2.97;2.30;;;;;;;;;;5006084;28;20432;-71
2022/04/17 08:20:50;;;;;;;1.90;1.70;;;;;;;;;;5027528;28;20518;-71
2022/04/17 08:23:19;;;;;;;2.17;1.97;;;;;;;;;;5018030;28;20557;-71
2022/04/17 08:25:46;;;;;;;3.13;2.80;;;;;;;;;;5009094;28;20434;-73
2022/04/17 08:28:13;;;;;;;3.17;2.23;;;;;;;;;;4996517;28;20478;-71
2022/04/17 08:30:49;;;;;;;3.23;2.07;;;;;;;;;;5006943;28;20436;-70
2022/04/17 08:33:15;;;;;;;2.37;2.17;;;;;;;;;;4991000;28;20439;-71
2022/04/17 08:35:46;;;;;;;2.40;2.20;;;;;;;;;;5002689;28;20433;-71
2022/04/17 08:38:22;;;;;;;4.13;1.67;;;;;;;;;;5041534;28;20448;-70
2022/04/17 08:44:14;;;;;;;2.10;1.87;;;;;;;;;;5000332;28;20504;-72
2022/04/17 08:46:41;;;;;;;3.20;2.30;;;;;;;;;;4986125;28;20452;-72
2022/04/17 08:49:19;;;;;;;2.77;2.40;;;;;;;;;;5017650;28;20437;-72
2022/04/17 08:51:48;;;;;;;2.07;1.87;;;;;;;;;;4986805;28;20455;-70
2022/04/17 08:54:17;;;;;;;2.57;2.10;;;;;;;;;;4983204;28;20503;-70
2022/04/17 08:57:04;;;;;;;3.60;1.77;;;;;;;;;;4994141;28;20487;-71
2022/04/17 08:59:32;;;;;;;3.37;2.07;;;;;;;;;;4980880;28;20524;-70
2022/04/17 09:02:02;;;;;;;2.70;2.30;;;;;;;;;;4978665;28;20441;-72
2022/04/17 09:04:28;;;;;;;2.20;1.90;;;;;;;;;;4994640;28;20437;-72
2022/04/17 09:07:42;;;;;;;3.13;1.87;;;;;;;;;;4984261;28;21107;-71
2022/04/17 09:10:08;;;;;;;2.23;1.93;;;;;;;;;;4998955;28;20469;-71
2022/04/17 09:12:35;;;;;;;2.37;1.97;;;;;;;;;;4983457;28;20456;-70
2022/04/17 09:15:01;;;;;;;2.93;2.57;;;;;;;;;;4999928;28;20584;-70
2022/04/17 09:17:56;;;;;;;2.37;2.13;;;;;;;;;;4985556;28;20496;-71
2022/04/17 09:20:22;;;;;;;1.67;1.50;;;;;;;;;;4993198;28;20579;-71
2022/04/17 09:22:49;;;;;;;2.40;1.93;;;;;;;;;;4976448;28;20575;-71
2022/04/17 09:25:15;;;;;;;2.10;1.90;;;;;;;;;;4991066;28;20439;-71
2022/04/17 09:27:54;;;;;;;3.10;2.30;;;;;;;;;;4990497;28;20436;-71
2022/04/17 09:30:25;;;;;;;2.60;2.13;;;;;;;;;;4993288;28;20435;-71
2022/04/17 09:32:57;;;;;;;2.70;2.23;;;;;;;;;;4972694;28;20959;-73
2022/04/17 09:35:24;;;;;;;3.00;2.10;;;;;;;;;;4997165;28;20531;-72
2022/04/17 09:37:50;;;;;;;2.43;1.67;;;;;;;;;;4973711;28;21047;-73
2022/04/17 09:40:19;;;;;;;2.50;1.70;;;;;;;;;;4997891;28;20528;-71
2022/04/17 09:46:00;;;;;;;3.80;2.00;;;;;;;;;;5004174;28;20519;-74
2022/04/17 09:48:34;;;;;;;1.90;1.60;;;;;;;;;;4981642;28;20448;-72
2022/04/17 09:51:24;;;;;;;3.27;1.67;;;;;;;;;;4983968;28;20484;-73
2022/04/17 09:54:23;;;;;;;2.97;1.80;;;;;;;;;;4989636;28;20595;-71
2022/04/17 09:56:50;;;;;;;3.13;1.70;;;;;;;;;;4970245;28;20836;-73
2022/04/17 09:59:17;;;;;;;2.60;2.10;;;;;;;;;;5015709;28;20699;-73
2022/04/17 10:01:45;;;;;;;1.90;1.70;;;;;;;;;;4978744;28;20472;-72
2022/04/17 10:04:16;;;;;;;9.20;1.73;;;;;;;;;;5001080;28;20565;-73
2022/04/17 10:06:46;;;;;;;3.30;2.00;;;;;;;;;;4987539;28;20444;-73
2022/04/17 10:09:12;;;;;;;2.87;2.00;;;;;;;;;;4995641;28;20483;-72
2022/04/17 10:11:38;;;;;;;2.80;1.90;;;;;;;;;;4970863;28;20540;-72
2022/04/17 10:14:06;;;;;;;3.03;2.20;;;;;;;;;;5002145;28;20491;-72
2022/04/17 10:16:48;;;;;;;2.57;2.10;;;;;;;;;;5011057;28;20983;-73
2022/04/17 10:19:39;;;;;;;2.33;1.90;;;;;;;;;;4998314;28;20447;-72
2022/04/17 10:22:05;;;;;;;2.03;1.83;;;;;;;;;;4976963;28;20476;-72
2022/04/17 10:24:35;;;;;;;3.00;1.97;;;;;;;;;;4994260;28;21053;-72
2022/04/17 10:27:01;;;;;;;2.37;1.70;;;;;;;;;;4992631;28;20424;-72
2022/04/17 10:29:46;;;;;;;2.73;1.67;;;;;;;;;;4998053;28;20453;-72
2022/04/17 10:32:22;;;;;;;2.90;1.80;;;;;;;;;;4967013;28;20872;-72
2022/04/17 10:35:12;;;;;;;2.27;2.03;;;;;;;;;;4978676;28;20578;-72
2022/04/17 10:38:15;;;;;;;2.20;1.70;;;;;;;;;;4982517;28;20909;-72
2022/04/17 10:40:48;;;;;;;2.70;2.07;;;;;;;;;;4997588;28;20447;-72
2022/04/17 10:43:14;;;;;;;2.20;1.83;;;;;;;;;;5000273;28;20503;-74
2022/04/17 10:46:03;;;;;;;3.27;1.73;;;;;;;;;;4986363;28;20535;-73
2022/04/17 10:48:30;;;;;;;1.83;1.67;;;;;;;;;;5000602;28;20498;-73
2022/04/17 10:50:57;;;;;;;2.10;1.70;;;;;;;;;;4985724;28;20880;-73
2022/04/17 10:53:26;;;;;;;2.13;1.67;;;;;;;;;;4995903;28;20440;-72
2022/04/17 10:56:05;;;;;;;2.00;1.50;;;;;;;;;;4979335;28;20444;-72
2022/04/17 10:58:40;;;;;;;2.50;2.00;;;;;;;;;;5002269;28;20653;-72
2022/04/17 11:04:17;;;;;;;2.30;1.50;;;;;;;;;;4996698;28;20451;-72
2022/04/17 11:06:46;;;;;;;2.27;1.50;;;;;;;;;;4979240;28;20472;-72
2022/04/17 11:09:22;;;;;;;3.03;1.47;;;;;;;;;;5003144;28;20452;-73
2022/04/17 11:11:49;;;;;;;4.40;1.97;;;;;;;;;;4988148;28;20444;-73
2022/04/17 11:14:34;;;;;;;2.47;1.47;;;;;;;;;;5014002;28;20560;-73
2022/04/17 11:17:08;;;;;;;2.50;1.93;;;;;;;;;;4994113;28;20445;-73
2022/04/17 11:20:07;;;;;;;2.43;1.50;;;;;;;;;;4996734;28;20445;-72
2022/04/17 11:22:54;;;;;;;1.57;1.37;;;;;;;;;;4993322;28;20609;-74
2022/04/17 11:25:44;;;;;;;2.97;1.33;;;;;;;;;;4993123;28;20439;-73
2022/04/17 11:28:10;;;;;;;1.70;1.40;;;;;;;;;;4996308;28;20444;-71
2022/04/17 11:30:36;;;;;;;4.43;1.83;;;;;;;;;;4990411;28;20518;-71
2022/04/17 11:33:04;;;;;;;2.40;1.43;;;;;;;;;;4998056;28;20186;-72
2022/04/17 11:35:30;;;;;;;3.07;1.70;;;;;;;;;;4998958;28;20481;-72
2022/04/17 11:38:06;;;;;;;2.70;1.80;;;;;;;;;;5003838;28;20440;-72
2022/04/17 11:40:44;;;;;;;2.20;1.40;;;;;;;;;;4999879;28;23008;-73
2022/04/17 11:43:11;;;;;;;1.90;1.50;;;;;;;;;;4995244;28;20443;-73
2022/04/17 11:45:37;;;;;;;3.40;1.77;;;;;;;;;;5006883;28;20513;-72
2022/04/17 11:48:05;;;;;;;2.83;1.30;;;;;;;;;;5008369;28;20476;-73
2022/04/17 11:50:55;;;;;;;2.83;2.50;;;;;;;;;;4987063;28;20514;-73
2022/04/17 11:53:21;;;;;;;1.70;1.37;;;;;;;;;;4995626;28;20436;-72
2022/04/17 11:55:47;;;;;;;2.30;1.63;;;;;;;;;;4998573;28;20702;-73
2022/04/17 11:58:14;;;;;;;1.73;1.40;;;;;;;;;;5002080;28;20488;-72
2022/04/17 12:00:46;;;;;;;4.80;1.80;;;;;;;;;;4970637;28;20575;-72
2022/04/17 12:06:09;;;;;;;3.03;1.90;;;;;;;;;;4939428;28;20477;-59
2022/04/17 12:08:37;;;;;;;2.93;2.10;;;;;;;;;;4961368;28;20958;-52
2022/04/17 12:11:29;;;;;;;3.90;1.73;;;;;;;;;;4959383;28;20439;-51
2022/04/17 12:14:14;;;;;;;2.10;1.50;;;;;;;;;;4974112;28;20526;-53
2022/04/17 12:16:53;;;;;;;2.53;1.70;;;;;;;;;;4974922;28;20468;-51
2022/04/17 12:19:20;;;;;;;2.50;1.90;;;;;;;;;;4984046;28;20531;-52
2022/04/17 12:21:46;;;;;;;3.77;2.07;;;;;;;;;;4943574;28;20556;-53
2022/04/17 12:24:12;;;;;;;2.47;1.70;;;;;;;;;;4977289;28;20512;-51
2022/04/17 12:26:38;;;;;;;2.10;1.50;;;;;;;;;;4933783;28;21464;-53
2022/04/17 12:29:07;;;;;;;3.53;2.07;;;;;;;;;;4974198;28;20827;-53
2022/04/17 12:31:36;;;;;;;4.30;2.17;;;;;;;;;;4963416;28;20559;-52
2022/04/17 12:34:09;;;;;;;3.77;1.77;;;;;;;;;;4935914;28;20478;-52
2022/04/17 12:36:38;;;;;;;2.90;2.03;;;;;;;;;;4971760;28;21017;-53
2022/04/17 12:39:25;;;;;;;4.13;1.60;;;;;;;;;;4954338;28;20456;-52
2022/04/17 12:41:54;;;;;;;2.40;2.03;;;;;;;;;;4983505;28;20447;-51
2022/04/17 12:44:32;;;;;;;3.80;2.47;;;;;;;;;;4941472;28;20457;-52
2022/04/17 12:47:14;;;;;;;5.80;1.90;;;;;;;;;;4987889;28;20522;-52
2022/04/17 12:49:40;;;;;;;3.03;1.90;;;;;;;;;;4967653;28;20429;-52
2022/04/17 12:52:07;;;;;;;3.20;1.70;;;;;;;;;;4972360;28;20961;-52
2022/04/17 12:54:33;;;;;;;2.33;1.73;;;;;;;;;;4978586;28;20484;-51
2022/04/17 12:57:03;;;;;;;3.30;1.60;;;;;;;;;;4989459;28;20527;-50
2022/04/17 12:59:39;;;;;;;3.30;2.07;;;;;;;;;;4941950;28;21179;-52
2022/04/17 13:02:31;;;;;;;21.67;2.80;;;;;;;;;;4985195;28;20497;-52
2022/04/17 13:05:07;;;;;;;3.07;1.70;;;;;;;;;;4969468;28;20476;-52
2022/04/17 13:07:34;;;;;;;2.30;1.60;;;;;;;;;;4985461;28;20667;-52
2022/04/17 13:10:03;;;;;;;2.40;1.53;;;;;;;;;;4988210;28;20496;-52
2022/04/17 13:12:47;;;;;;;2.63;1.60;;;;;;;;;;4984006;28;20434;-51
2022/04/17 13:15:22;;;;;;;2.90;1.50;;;;;;;;;;4978617;28;20529;-52
2022/04/17 13:18:16;;;;;;;3.70;1.60;;;;;;;;;;4974061;28;20575;-52
2022/04/17 13:20:43;;;;;;;2.80;1.50;;;;;;;;;;4993516;28;20501;-52
2022/04/17 13:23:15;;;;;;;2.10;1.40;;;;;;;;;;4993028;28;20750;-53
2022/04/17 13:25:41;;;;;;;3.87;1.60;;;;;;;;;;4992400;28;20449;-52
2022/04/17 13:28:24;;;;;;;2.20;1.50;;;;;;;;;;4971557;28;20567;-54
2022/04/17 13:30:53;;;;;;;2.60;1.60;;;;;;;;;;4990335;28;20433;-53
2022/04/17 13:33:24;;;;;;;3.37;1.33;;;;;;;;;;4965176;28;20442;-51
2022/04/17 13:35:53;;;;;;;2.40;1.50;;;;;;;;;;4990194;28;20547;-51
2022/04/17 13:38:19;;;;;;;2.10;1.17;;;;;;;;;;4985786;28;21136;-51
2022/04/17 13:40:45;;;;;;;2.17;1.40;;;;;;;;;;4989223;28;20561;-52
2022/04/17 13:43:19;;;;;;;5.70;2.03;;;;;;;;;;4968164;28;20677;-50
2022/04/17 13:45:48;;;;;;;2.10;1.40;;;;;;;;;;4987316;28;20464;-53
2022/04/17 13:48:27;;;;;;;3.23;1.43;;;;;;;;;;4974039;28;20772;-54
2022/04/17 13:50:55;;;;;;;3.60;1.77;;;;;;;;;;4989454;28;20437;-53
2022/04/17 13:53:21;;;;;;;2.13;1.53;;;;;;;;;;4986447;28;21228;-53
2022/04/17 13:55:47;;;;;;;2.20;1.60;;;;;;;;;;4991605;28;20575;-54
2022/04/17 13:58:19;;;;;;;3.17;1.63;;;;;;;;;;4962951;28;21165;-52
2022/04/17 14:00:47;;;;;;;2.27;1.47;;;;;;;;;;4994311;28;20452;-52
2022/04/17 14:03:23;;;;;;;1.67;1.20;;;;;;;;;;4964091;28;21072;-51
2022/04/17 14:05:51;;;;;;;1.70;1.43;;;;;;;;;;4987950;28;20463;-50
2022/04/17 14:08:17;;;;;;;1.97;1.50;;;;;;;;;;4982648;28;20445;-55
2022/04/17 14:10:44;;;;;;;1.70;1.33;;;;;;;;;;4997649;28;20492;-53
2022/04/17 14:13:10;;;;;;;1.70;1.17;;;;;;;;;;4985244;28;20432;-52
2022/04/17 14:15:39;;;;;;;2.80;1.10;;;;;;;;;;4982340;28;20970;-53
2022/04/17 14:18:05;;;;;;;2.10;1.30;;;;;;;;;;5002313;28;20524;-51
2022/04/17 14:20:31;;;;;;;3.70;1.50;;;;;;;;;;4959259;28;20457;-51
2022/04/17 14:23:05;;;;;;;2.00;1.00;;;;;;;;;;5002089;28;20436;-51
2022/04/17 14:25:31;;;;;;;2.13;1.30;;;;;;;;;;4970140;28;20453;-51
2022/04/17 14:27:58;;;;;;;2.30;1.33;;;;;;;;;;4987129;28;20527;-52
2022/04/17 14:30:24;;;;;;;3.00;1.40;;;;;;;;;;4940815;28;20495;-53
2022/04/17 14:32:50;;;;;;;1.97;1.40;;;;;;;;;;4985399;28;20480;-51
2022/04/17 14:35:19;;;;;;;1.73;1.10;;;;;;;;;;4958696;28;20571;-52
2022/04/17 14:37:46;;;;;;;1.73;1.20;;;;;;;;;;4985604;28;20883;-52
2022/04/17 14:40:12;;;;;;;3.23;1.10;;;;;;;;;;4965856;28;20592;-52
2022/04/17 14:42:38;;;;;;;2.20;1.50;;;;;;;;;;4982936;28;20448;-53
2022/04/17 14:45:06;;;;;;;2.30;1.77;;;;;;;;;;4959349;28;21200;-53
2022/04/17 14:47:34;;;;;;;2.33;1.37;;;;;;;;;;4985679;28;21139;-53
2022/04/17 14:50:00;;;;;;;2.67;1.80;;;;;;;;;;4960021;28;20453;-54
2022/04/17 14:52:26;;;;;;;2.23;1.60;;;;;;;;;;4995035;28;21352;-53
2022/04/17 14:54:52;;;;;;;2.80;1.57;;;;;;;;;;4982953;28;20477;-53
2022/04/17 14:57:18;;;;;;;2.83;1.57;;;;;;;;;;4985824;28;20438;-52
2022/04/17 14:59:44;;;;;;;1.80;1.20;;;;;;;;;;4980237;28;20569;-54
2022/04/17 15:02:12;;;;;;;2.50;1.30;;;;;;;;;;4982552;28;20436;-53
2022/04/17 15:04:38;;;;;;;3.33;1.57;;;;;;;;;;4946667;28;20453;-52
2022/04/17 15:07:06;;;;;;;1.80;1.47;;;;;;;;;;4989020;28;20441;-52
2022/04/17 15:09:33;;;;;;;2.27;1.30;;;;;;;;;;4985151;28;20511;-51
2022/04/17 15:11:59;;;;;;;1.40;1.00;;;;;;;;;;4989960;28;20981;-52
2022/04/17 15:14:30;;;;;;;2.20;1.63;;;;;;;;;;4964594;28;20702;-51
2022/04/17 15:16:58;;;;;;;1.70;1.30;;;;;;;;;;4989430;28;20457;-51
2022/04/17 15:19:27;;;;;;;2.23;1.73;;;;;;;;;;4971351;28;20450;-51
2022/04/17 15:21:56;;;;;;;2.40;1.30;;;;;;;;;;4957521;28;20809;-51
2022/04/17 15:24:23;;;;;;;2.03;1.43;;;;;;;;;;4989902;28;20444;-51
2022/04/17 15:26:50;;;;;;;4.20;1.83;;;;;;;;;;4987600;28;20449;-51
2022/04/17 15:29:16;;;;;;;3.27;1.40;;;;;;;;;;4989688;28;20468;-50
2022/04/17 15:31:42;;;;;;;1.73;1.20;;;;;;;;;;4963155;28;20908;-51
2022/04/17 15:34:11;;;;;;;2.00;1.40;;;;;;;;;;4993325;28;20485;-50
2022/04/17 15:36:37;;;;;;;2.33;1.57;;;;;;;;;;4944529;28;20452;-51
2022/04/17 15:39:05;;;;;;;2.03;1.20;;;;;;;;;;5002172;28;20477;-52
2022/04/17 15:41:31;;;;;;;2.87;1.40;;;;;;;;;;4981769;28;20982;-52
2022/04/17 15:49:26;;;;;;;2.53;1.00;;;;;;;;;;4999066;28;20545;-53
2022/04/17 15:51:52;;;;;;;1.50;1.10;;;;;;;;;;4963879;28;20456;-52
2022/04/17 15:54:18;;;;;;;2.40;1.60;;;;;;;;;;4989156;28;21036;-52
2022/04/17 15:56:45;;;;;;;1.23;0.93;;;;;;;;;;4958394;28;20985;-51
2022/04/17 15:59:12;;;;;;;1.73;1.30;;;;;;;;;;4985847;28;20424;-51